sensor_id;sensor_type;location;lat;lon;timestamp;P1;durP1;ratioP1;P2;durP2;ratioP2
6288;SDS011;3177;49.880;8.836;2022-08-02T00:01:51;3.85;;;3.20;;
6288;SDS011;3177;49.880;8.836;2022-08-02T00:04:19;5.03;;;3.30;;
6288;SDS011;3177;49.880;8.836;2022-08-02T00:06:46;4.05;;;3.10;;
6288;SDS011;3177;49.880;8.836;2022-08-02T00:09:13;3.50;;;3.20;;
6288;SDS011;3177;49.880;8.836;2022-08-02T00:11:41;5.50;;;3.08;;
6288;SDS011;3177;49.880;8.836;2022-08-02T00:14:08;4.85;;;3.28;;
6288;SDS011;3177;49.880;8.836;2022-08-02T00:16:35;3.33;;;3.03;;
6288;SDS011;3177;49.880;8.836;2022-08-02T00:19:02;3.78;;;3.22;;
6288;SDS011;3177;49.880;8.836;2022-08-02T00:21:31;3.03;;;2.83;;
6288;SDS011;3177;49.880;8.836;2022-08-02T00:23:58;2.92;;;2.72;;
6288;SDS011;3177;49.880;8.836;2022-08-02T00:26:26;3.20;;;3.00;;
6288;SDS011;3177;49.880;8.836;2022-08-02T00:28:53;6.22;;;2.88;;
6288;SDS011;3177;49.880;8.836;2022-08-02T00:31:20;3.20;;;3.00;;
6288;SDS011;3177;49.880;8.836;2022-08-02T00:33:47;5.75;;;2.75;;
6288;SDS011;3177;49.880;8.836;2022-08-02T00:36:14;3.42;;;3.15;;
6288;SDS011;3177;49.880;8.836;2022-08-02T00:38:43;4.38;;;2.92;;
6288;SDS011;3177;49.880;8.836;2022-08-02T00:41:12;3.60;;;3.30;;
6288;SDS011;3177;49.880;8.836;2022-08-02T00:43:40;2.80;;;2.42;;
6288;SDS011;3177;49.880;8.836;2022-08-02T00:46:07;4.65;;;3.33;;
6288;SDS011;3177;49.880;8.836;2022-08-02T00:48:34;2.92;;;2.67;;
6288;SDS011;3177;49.880;8.836;2022-08-02T00:51:02;4.43;;;3.00;;
6288;SDS011;3177;49.880;8.836;2022-08-02T00:53:29;2.92;;;2.58;;
6288;SDS011;3177;49.880;8.836;2022-08-02T00:55:57;3.17;;;2.85;;
6288;SDS011;3177;49.880;8.836;2022-08-02T00:58:24;6.25;;;3.40;;
6288;SDS011;3177;49.880;8.836;2022-08-02T01:00:52;3.15;;;2.90;;
6288;SDS011;3177;49.880;8.836;2022-08-02T01:03:21;3.15;;;2.95;;
6288;SDS011;3177;49.880;8.836;2022-08-02T01:05:48;3.55;;;2.90;;
6288;SDS011;3177;49.880;8.836;2022-08-02T01:08:15;2.80;;;2.60;;
6288;SDS011;3177;49.880;8.836;2022-08-02T01:10:43;3.63;;;3.13;;
6288;SDS011;3177;49.880;8.836;2022-08-02T01:13:11;3.30;;;3.00;;
6288;SDS011;3177;49.880;8.836;2022-08-02T01:15:39;3.70;;;3.40;;
6288;SDS011;3177;49.880;8.836;2022-08-02T01:18:09;2.97;;;2.75;;
6288;SDS011;3177;49.880;8.836;2022-08-02T01:23:34;4.50;;;3.17;;
6288;SDS011;3177;49.880;8.836;2022-08-02T01:26:17;3.20;;;2.90;;
6288;SDS011;3177;49.880;8.836;2022-08-02T01:28:51;2.85;;;2.65;;
6288;SDS011;3177;49.880;8.836;2022-08-02T01:31:20;4.30;;;3.25;;
6288;SDS011;3177;49.880;8.836;2022-08-02T01:33:49;5.32;;;3.00;;
6288;SDS011;3177;49.880;8.836;2022-08-02T01:36:17;3.08;;;2.88;;
6288;SDS011;3177;49.880;8.836;2022-08-02T01:38:47;3.20;;;3.00;;
6288;SDS011;3177;49.880;8.836;2022-08-02T01:41:17;3.33;;;2.97;;
6288;SDS011;3177;49.880;8.836;2022-08-02T01:43:45;5.00;;;2.90;;
6288;SDS011;3177;49.880;8.836;2022-08-02T01:46:15;6.00;;;3.08;;
6288;SDS011;3177;49.880;8.836;2022-08-02T01:48:43;2.92;;;2.72;;
6288;SDS011;3177;49.880;8.836;2022-08-02T01:51:12;3.42;;;3.10;;
6288;SDS011;3177;49.880;8.836;2022-08-02T01:53:44;3.03;;;2.83;;
6288;SDS011;3177;49.880;8.836;2022-08-02T01:56:11;5.35;;;3.10;;
6288;SDS011;3177;49.880;8.836;2022-08-02T01:58:40;5.22;;;3.15;;
6288;SDS011;3177;49.880;8.836;2022-08-02T02:01:08;4.25;;;3.40;;
6288;SDS011;3177;49.880;8.836;2022-08-02T02:03:37;7.63;;;3.60;;
6288;SDS011;3177;49.880;8.836;2022-08-02T02:06:05;3.33;;;3.03;;
6288;SDS011;3177;49.880;8.836;2022-08-02T02:08:35;4.37;;;3.10;;
6288;SDS011;3177;49.880;8.836;2022-08-02T02:11:02;3.93;;;3.30;;
6288;SDS011;3177;49.880;8.836;2022-08-02T02:13:30;5.90;;;3.25;;
6288;SDS011;3177;49.880;8.836;2022-08-02T02:15:57;3.77;;;3.47;;
6288;SDS011;3177;49.880;8.836;2022-08-02T02:18:28;3.90;;;3.60;;
6288;SDS011;3177;49.880;8.836;2022-08-02T02:20:56;3.83;;;3.53;;
6288;SDS011;3177;49.880;8.836;2022-08-02T02:23:24;4.37;;;3.47;;
6288;SDS011;3177;49.880;8.836;2022-08-02T02:25:53;5.18;;;3.58;;
6288;SDS011;3177;49.880;8.836;2022-08-02T02:28:21;3.42;;;3.13;;
6288;SDS011;3177;49.880;8.836;2022-08-02T02:30:54;3.60;;;3.30;;
6288;SDS011;3177;49.880;8.836;2022-08-02T02:33:24;3.92;;;3.47;;
6288;SDS011;3177;49.880;8.836;2022-08-02T02:35:51;4.15;;;3.40;;
6288;SDS011;3177;49.880;8.836;2022-08-02T02:38:20;3.70;;;3.40;;
6288;SDS011;3177;49.880;8.836;2022-08-02T02:40:48;4.30;;;3.90;;
6288;SDS011;3177;49.880;8.836;2022-08-02T02:43:15;4.20;;;3.70;;
6288;SDS011;3177;49.880;8.836;2022-08-02T02:45:43;3.80;;;3.40;;
6288;SDS011;3177;49.880;8.836;2022-08-02T02:48:11;4.03;;;3.33;;
6288;SDS011;3177;49.880;8.836;2022-08-02T02:50:39;6.13;;;3.43;;
6288;SDS011;3177;49.880;8.836;2022-08-02T02:53:07;4.17;;;3.47;;
6288;SDS011;3177;49.880;8.836;2022-08-02T02:55:36;4.50;;;4.10;;
6288;SDS011;3177;49.880;8.836;2022-08-02T02:58:03;3.87;;;3.40;;
6288;SDS011;3177;49.880;8.836;2022-08-02T03:00:31;4.17;;;3.77;;
6288;SDS011;3177;49.880;8.836;2022-08-02T03:03:15;4.37;;;3.53;;
6288;SDS011;3177;49.880;8.836;2022-08-02T03:05:43;3.70;;;3.33;;
6288;SDS011;3177;49.880;8.836;2022-08-02T03:08:11;5.83;;;3.77;;
6288;SDS011;3177;49.880;8.836;2022-08-02T03:10:41;7.40;;;3.37;;
6288;SDS011;3177;49.880;8.836;2022-08-02T03:13:09;4.83;;;3.47;;
6288;SDS011;3177;49.880;8.836;2022-08-02T03:15:36;3.33;;;3.03;;
6288;SDS011;3177;49.880;8.836;2022-08-02T03:18:04;3.73;;;3.03;;
6288;SDS011;3177;49.880;8.836;2022-08-02T03:20:32;5.07;;;3.20;;
6288;SDS011;3177;49.880;8.836;2022-08-02T03:22:59;3.53;;;3.23;;
6288;SDS011;3177;49.880;8.836;2022-08-02T03:25:26;5.67;;;3.50;;
6288;SDS011;3177;49.880;8.836;2022-08-02T03:27:55;3.70;;;3.40;;
6288;SDS011;3177;49.880;8.836;2022-08-02T03:30:22;8.50;;;3.57;;
6288;SDS011;3177;49.880;8.836;2022-08-02T03:32:51;4.10;;;3.60;;
6288;SDS011;3177;49.880;8.836;2022-08-02T03:35:18;6.17;;;3.27;;
6288;SDS011;3177;49.880;8.836;2022-08-02T03:37:46;5.20;;;4.17;;
6288;SDS011;3177;49.880;8.836;2022-08-02T03:40:14;4.20;;;3.80;;
6288;SDS011;3177;49.880;8.836;2022-08-02T03:42:41;3.93;;;3.50;;
6288;SDS011;3177;49.880;8.836;2022-08-02T03:45:10;4.87;;;3.70;;
6288;SDS011;3177;49.880;8.836;2022-08-02T03:47:38;4.33;;;3.03;;
6288;SDS011;3177;49.880;8.836;2022-08-02T03:50:06;4.20;;;3.80;;
6288;SDS011;3177;49.880;8.836;2022-08-02T03:52:33;3.83;;;3.50;;
6288;SDS011;3177;49.880;8.836;2022-08-02T03:55:02;5.17;;;3.77;;
6288;SDS011;3177;49.880;8.836;2022-08-02T03:57:29;4.57;;;4.07;;
6288;SDS011;3177;49.880;8.836;2022-08-02T03:59:56;4.20;;;3.80;;
6288;SDS011;3177;49.880;8.836;2022-08-02T04:02:24;5.17;;;4.10;;
6288;SDS011;3177;49.880;8.836;2022-08-02T04:04:54;4.10;;;3.80;;
6288;SDS011;3177;49.880;8.836;2022-08-02T04:07:21;4.20;;;3.60;;
6288;SDS011;3177;49.880;8.836;2022-08-02T04:09:48;4.13;;;3.83;;
6288;SDS011;3177;49.880;8.836;2022-08-02T04:12:15;4.40;;;4.00;;
6288;SDS011;3177;49.880;8.836;2022-08-02T04:14:42;6.23;;;4.13;;
6288;SDS011;3177;49.880;8.836;2022-08-02T04:17:10;4.90;;;4.20;;
6288;SDS011;3177;49.880;8.836;2022-08-02T04:19:41;5.70;;;4.10;;
6288;SDS011;3177;49.880;8.836;2022-08-02T04:22:10;4.20;;;3.80;;
6288;SDS011;3177;49.880;8.836;2022-08-02T04:24:42;4.13;;;3.50;;
6288;SDS011;3177;49.880;8.836;2022-08-02T04:27:11;8.23;;;3.70;;
6288;SDS011;3177;49.880;8.836;2022-08-02T04:29:38;6.70;;;3.70;;
6288;SDS011;3177;49.880;8.836;2022-08-02T04:32:06;7.27;;;3.83;;
6288;SDS011;3177;49.880;8.836;2022-08-02T04:34:34;4.03;;;3.57;;
6288;SDS011;3177;49.880;8.836;2022-08-02T04:37:02;7.43;;;3.80;;
6288;SDS011;3177;49.880;8.836;2022-08-02T04:39:29;3.97;;;3.67;;
6288;SDS011;3177;49.880;8.836;2022-08-02T04:41:56;3.90;;;3.60;;
6288;SDS011;3177;49.880;8.836;2022-08-02T04:44:23;4.50;;;3.70;;
6288;SDS011;3177;49.880;8.836;2022-08-02T04:46:51;4.07;;;3.67;;
6288;SDS011;3177;49.880;8.836;2022-08-02T04:49:18;4.00;;;3.70;;
6288;SDS011;3177;49.880;8.836;2022-08-02T04:51:45;7.47;;;3.67;;
6288;SDS011;3177;49.880;8.836;2022-08-02T04:54:14;4.00;;;3.70;;
6288;SDS011;3177;49.880;8.836;2022-08-02T04:56:41;4.17;;;3.87;;
6288;SDS011;3177;49.880;8.836;2022-08-02T04:59:08;4.07;;;3.77;;
6288;SDS011;3177;49.880;8.836;2022-08-02T05:01:36;4.40;;;4.00;;
6288;SDS011;3177;49.880;8.836;2022-08-02T05:04:06;5.27;;;4.23;;
6288;SDS011;3177;49.880;8.836;2022-08-02T05:06:33;4.20;;;3.80;;
6288;SDS011;3177;49.880;8.836;2022-08-02T05:09:00;4.30;;;3.90;;
6288;SDS011;3177;49.880;8.836;2022-08-02T05:11:29;6.27;;;4.37;;
6288;SDS011;3177;49.880;8.836;2022-08-02T05:13:56;8.77;;;4.23;;
6288;SDS011;3177;49.880;8.836;2022-08-02T05:16:23;6.87;;;4.10;;
6288;SDS011;3177;49.880;8.836;2022-08-02T05:18:50;6.90;;;4.87;;
6288;SDS011;3177;49.880;8.836;2022-08-02T05:21:17;5.67;;;4.47;;
6288;SDS011;3177;49.880;8.836;2022-08-02T05:23:45;7.00;;;4.97;;
6288;SDS011;3177;49.880;8.836;2022-08-02T05:26:12;8.60;;;5.33;;
6288;SDS011;3177;49.880;8.836;2022-08-02T05:28:40;7.43;;;4.97;;
6288;SDS011;3177;49.880;8.836;2022-08-02T05:31:07;6.17;;;5.57;;
6288;SDS011;3177;49.880;8.836;2022-08-02T05:33:34;8.37;;;4.60;;
6288;SDS011;3177;49.880;8.836;2022-08-02T05:36:01;10.10;;;4.70;;
6288;SDS011;3177;49.880;8.836;2022-08-02T05:38:28;5.87;;;5.27;;
6288;SDS011;3177;49.880;8.836;2022-08-02T05:40:56;6.23;;;4.93;;
6288;SDS011;3177;49.880;8.836;2022-08-02T05:43:23;4.83;;;4.43;;
6288;SDS011;3177;49.880;8.836;2022-08-02T05:45:52;5.17;;;4.67;;
6288;SDS011;3177;49.880;8.836;2022-08-02T05:48:19;7.20;;;4.90;;
6288;SDS011;3177;49.880;8.836;2022-08-02T05:50:48;7.00;;;4.77;;
6288;SDS011;3177;49.880;8.836;2022-08-02T05:53:18;6.97;;;4.90;;
6288;SDS011;3177;49.880;8.836;2022-08-02T05:55:51;5.43;;;4.93;;
6288;SDS011;3177;49.880;8.836;2022-08-02T05:58:23;5.30;;;4.90;;
6288;SDS011;3177;49.880;8.836;2022-08-02T06:00:55;6.10;;;4.70;;
6288;SDS011;3177;49.880;8.836;2022-08-02T06:03:23;5.20;;;4.80;;
6288;SDS011;3177;49.880;8.836;2022-08-02T06:05:52;5.60;;;5.10;;
6288;SDS011;3177;49.880;8.836;2022-08-02T06:08:20;7.57;;;5.67;;
6288;SDS011;3177;49.880;8.836;2022-08-02T06:10:50;7.10;;;6.40;;
6288;SDS011;3177;49.880;8.836;2022-08-02T06:13:17;6.30;;;5.70;;
6288;SDS011;3177;49.880;8.836;2022-08-02T06:15:46;13.52;;;5.60;;
6288;SDS011;3177;49.880;8.836;2022-08-02T06:18:19;5.15;;;4.65;;
6288;SDS011;3177;49.880;8.836;2022-08-02T06:20:47;5.25;;;4.28;;
6288;SDS011;3177;49.880;8.836;2022-08-02T06:23:15;5.68;;;4.57;;
6288;SDS011;3177;49.880;8.836;2022-08-02T06:25:43;4.60;;;4.22;;
6288;SDS011;3177;49.880;8.836;2022-08-02T06:28:12;6.20;;;3.85;;
6288;SDS011;3177;49.880;8.836;2022-08-02T06:30:39;4.93;;;4.53;;
6288;SDS011;3177;49.880;8.836;2022-08-02T06:33:07;4.85;;;4.32;;
6288;SDS011;3177;49.880;8.836;2022-08-02T06:35:38;5.55;;;4.07;;
6288;SDS011;3177;49.880;8.836;2022-08-02T06:38:07;5.38;;;4.63;;
6288;SDS011;3177;49.880;8.836;2022-08-02T06:40:38;5.60;;;4.45;;
6288;SDS011;3177;49.880;8.836;2022-08-02T06:43:10;6.88;;;4.75;;
6288;SDS011;3177;49.880;8.836;2022-08-02T06:45:38;6.05;;;4.60;;
6288;SDS011;3177;49.880;8.836;2022-08-02T06:48:05;5.63;;;5.10;;
6288;SDS011;3177;49.880;8.836;2022-08-02T06:50:32;4.90;;;4.50;;
6288;SDS011;3177;49.880;8.836;2022-08-02T06:53:00;3.92;;;3.53;;
6288;SDS011;3177;49.880;8.836;2022-08-02T06:55:27;5.05;;;4.50;;
6288;SDS011;3177;49.880;8.836;2022-08-02T06:57:56;4.85;;;4.15;;
6288;SDS011;3177;49.880;8.836;2022-08-02T07:00:24;5.70;;;4.25;;
6288;SDS011;3177;49.880;8.836;2022-08-02T07:02:51;4.65;;;4.13;;
6288;SDS011;3177;49.880;8.836;2022-08-02T07:05:18;4.20;;;3.80;;
6288;SDS011;3177;49.880;8.836;2022-08-02T07:07:45;3.90;;;3.60;;
6288;SDS011;3177;49.880;8.836;2022-08-02T07:10:14;3.70;;;3.45;;
6288;SDS011;3177;49.880;8.836;2022-08-02T07:12:41;5.00;;;3.60;;
6288;SDS011;3177;49.880;8.836;2022-08-02T07:15:14;4.65;;;3.38;;
6288;SDS011;3177;49.880;8.836;2022-08-02T07:17:55;4.68;;;3.70;;
6288;SDS011;3177;49.880;8.836;2022-08-02T07:20:22;4.45;;;3.35;;
6288;SDS011;3177;49.880;8.836;2022-08-02T07:22:49;4.72;;;3.60;;
6288;SDS011;3177;49.880;8.836;2022-08-02T07:25:17;3.17;;;2.90;;
6288;SDS011;3177;49.880;8.836;2022-08-02T07:27:45;4.03;;;3.63;;
6288;SDS011;3177;49.880;8.836;2022-08-02T07:30:12;5.97;;;3.50;;
6288;SDS011;3177;49.880;8.836;2022-08-02T07:32:39;4.03;;;3.63;;
6288;SDS011;3177;49.880;8.836;2022-08-02T07:35:06;8.75;;;3.35;;
6288;SDS011;3177;49.880;8.836;2022-08-02T07:37:34;4.07;;;3.38;;
6288;SDS011;3177;49.880;8.836;2022-08-02T07:40:03;5.13;;;3.53;;
6288;SDS011;3177;49.880;8.836;2022-08-02T07:42:31;3.40;;;3.10;;
6288;SDS011;3177;49.880;8.836;2022-08-02T07:44:58;5.53;;;3.70;;
6288;SDS011;3177;49.880;8.836;2022-08-02T07:47:25;4.10;;;3.13;;
6288;SDS011;3177;49.880;8.836;2022-08-02T07:49:53;4.07;;;3.25;;
6288;SDS011;3177;49.880;8.836;2022-08-02T07:52:20;3.83;;;3.13;;
6288;SDS011;3177;49.880;8.836;2022-08-02T07:54:47;4.47;;;2.42;;
6288;SDS011;3177;49.880;8.836;2022-08-02T07:57:14;2.80;;;2.45;;
6288;SDS011;3177;49.880;8.836;2022-08-02T07:59:42;2.05;;;1.80;;
6288;SDS011;3177;49.880;8.836;2022-08-02T08:02:13;6.93;;;2.30;;
6288;SDS011;3177;49.880;8.836;2022-08-02T08:04:40;2.75;;;2.30;;
6288;SDS011;3177;49.880;8.836;2022-08-02T08:07:07;4.60;;;2.30;;
6288;SDS011;3177;49.880;8.836;2022-08-02T08:09:35;2.30;;;2.10;;
6288;SDS011;3177;49.880;8.836;2022-08-02T08:12:04;3.15;;;2.50;;
6288;SDS011;3177;49.880;8.836;2022-08-02T08:14:31;2.85;;;2.30;;
6288;SDS011;3177;49.880;8.836;2022-08-02T08:17:00;2.38;;;2.03;;
6288;SDS011;3177;49.880;8.836;2022-08-02T08:19:27;2.17;;;1.98;;
6288;SDS011;3177;49.880;8.836;2022-08-02T08:21:54;2.00;;;1.90;;
6288;SDS011;3177;49.880;8.836;2022-08-02T08:24:24;4.50;;;2.20;;
6288;SDS011;3177;49.880;8.836;2022-08-02T08:26:51;1.90;;;1.80;;
6288;SDS011;3177;49.880;8.836;2022-08-02T08:29:18;1.90;;;1.73;;
6288;SDS011;3177;49.880;8.836;2022-08-02T08:31:45;2.90;;;1.80;;
6288;SDS011;3177;49.880;8.836;2022-08-02T08:34:14;23.88;;;2.60;;
6288;SDS011;3177;49.880;8.836;2022-08-02T08:36:41;16.30;;;2.20;;
6288;SDS011;3177;49.880;8.836;2022-08-02T08:39:08;19.17;;;3.72;;
6288;SDS011;3177;49.880;8.836;2022-08-02T08:41:36;20.65;;;2.38;;
6288;SDS011;3177;49.880;8.836;2022-08-02T08:44:03;1.23;;;1.23;;
6288;SDS011;3177;49.880;8.836;2022-08-02T08:46:32;6.25;;;1.25;;
6288;SDS011;3177;49.880;8.836;2022-08-02T08:49:05;5.25;;;1.38;;
6288;SDS011;3177;49.880;8.836;2022-08-02T08:51:36;1.45;;;1.40;;
6288;SDS011;3177;49.880;8.836;2022-08-02T08:54:05;1.70;;;1.40;;
6288;SDS011;3177;49.880;8.836;2022-08-02T08:56:40;5.60;;;1.73;;
6288;SDS011;3177;49.880;8.836;2022-08-02T08:59:08;1.10;;;1.10;;
6288;SDS011;3177;49.880;8.836;2022-08-02T09:01:35;4.47;;;1.60;;
6288;SDS011;3177;49.880;8.836;2022-08-02T09:04:02;0.93;;;0.93;;
6288;SDS011;3177;49.880;8.836;2022-08-02T09:06:29;2.67;;;1.00;;
6288;SDS011;3177;49.880;8.836;2022-08-02T09:08:58;1.00;;;1.00;;
6288;SDS011;3177;49.880;8.836;2022-08-02T09:11:25;13.07;;;2.42;;
6288;SDS011;3177;49.880;8.836;2022-08-02T09:13:52;1.30;;;1.20;;
6288;SDS011;3177;49.880;8.836;2022-08-02T09:16:26;1.20;;;1.10;;
6288;SDS011;3177;49.880;8.836;2022-08-02T09:18:54;14.48;;;1.83;;
6288;SDS011;3177;49.880;8.836;2022-08-02T09:21:21;8.82;;;1.70;;
6288;SDS011;3177;49.880;8.836;2022-08-02T09:23:49;42.33;;;2.25;;
6288;SDS011;3177;49.880;8.836;2022-08-02T09:26:18;1.10;;;1.10;;
6288;SDS011;3177;49.880;8.836;2022-08-02T09:28:46;1.10;;;1.00;;
6288;SDS011;3177;49.880;8.836;2022-08-02T09:31:14;12.38;;;1.27;;
6288;SDS011;3177;49.880;8.836;2022-08-02T09:33:42;0.90;;;0.90;;
6288;SDS011;3177;49.880;8.836;2022-08-02T09:36:10;1.05;;;1.05;;
6288;SDS011;3177;49.880;8.836;2022-08-02T09:38:38;0.80;;;0.80;;
6288;SDS011;3177;49.880;8.836;2022-08-02T09:41:06;1.55;;;1.00;;
6288;SDS011;3177;49.880;8.836;2022-08-02T09:43:46;1.20;;;1.05;;
6288;SDS011;3177;49.880;8.836;2022-08-02T09:46:14;1.63;;;1.25;;
6288;SDS011;3177;49.880;8.836;2022-08-02T09:48:45;1.95;;;1.20;;
6288;SDS011;3177;49.880;8.836;2022-08-02T09:51:12;1.45;;;1.10;;
6288;SDS011;3177;49.880;8.836;2022-08-02T09:53:39;1.30;;;1.20;;
6288;SDS011;3177;49.880;8.836;2022-08-02T09:56:06;1.20;;;1.10;;
6288;SDS011;3177;49.880;8.836;2022-08-02T09:58:36;1.27;;;1.17;;
6288;SDS011;3177;49.880;8.836;2022-08-02T10:01:05;2.38;;;0.90;;
6288;SDS011;3177;49.880;8.836;2022-08-02T10:03:32;1.23;;;1.05;;
6288;SDS011;3177;49.880;8.836;2022-08-02T10:05:59;1.40;;;1.13;;
6288;SDS011;3177;49.880;8.836;2022-08-02T10:08:28;1.40;;;1.30;;
6288;SDS011;3177;49.880;8.836;2022-08-02T10:10:55;1.75;;;0.95;;
6288;SDS011;3177;49.880;8.836;2022-08-02T10:13:27;1.30;;;1.00;;
6288;SDS011;3177;49.880;8.836;2022-08-02T10:15:54;1.38;;;1.27;;
6288;SDS011;3177;49.880;8.836;2022-08-02T10:18:23;1.27;;;1.27;;
6288;SDS011;3177;49.880;8.836;2022-08-02T10:20:50;1.20;;;1.10;;
6288;SDS011;3177;49.880;8.836;2022-08-02T10:23:19;1.30;;;1.20;;
6288;SDS011;3177;49.880;8.836;2022-08-02T10:25:46;1.75;;;1.10;;
6288;SDS011;3177;49.880;8.836;2022-08-02T10:28:14;1.25;;;1.02;;
6288;SDS011;3177;49.880;8.836;2022-08-02T10:30:42;0.90;;;0.90;;
6288;SDS011;3177;49.880;8.836;2022-08-02T10:33:12;2.75;;;1.10;;
6288;SDS011;3177;49.880;8.836;2022-08-02T10:35:44;1.75;;;0.85;;
6288;SDS011;3177;49.880;8.836;2022-08-02T10:38:12;87.80;;;3.92;;
6288;SDS011;3177;49.880;8.836;2022-08-02T10:40:42;72.47;;;5.18;;
6288;SDS011;3177;49.880;8.836;2022-08-02T10:43:10;0.70;;;0.70;;
6288;SDS011;3177;49.880;8.836;2022-08-02T10:45:37;0.90;;;0.90;;
6288;SDS011;3177;49.880;8.836;2022-08-02T10:48:06;1.00;;;1.00;;
6288;SDS011;3177;49.880;8.836;2022-08-02T10:50:53;2.92;;;1.00;;
6288;SDS011;3177;49.880;8.836;2022-08-02T10:53:21;1.67;;;1.10;;
6288;SDS011;3177;49.880;8.836;2022-08-02T10:55:48;1.20;;;1.08;;
6288;SDS011;3177;49.880;8.836;2022-08-02T10:58:16;0.82;;;0.82;;
6288;SDS011;3177;49.880;8.836;2022-08-02T11:00:43;0.77;;;0.77;;
6288;SDS011;3177;49.880;8.836;2022-08-02T11:06:00;0.98;;;0.98;;
6288;SDS011;3177;49.880;8.836;2022-08-02T11:08:28;1.38;;;1.02;;
6288;SDS011;3177;49.880;8.836;2022-08-02T11:10:56;1.02;;;1.02;;
6288;SDS011;3177;49.880;8.836;2022-08-02T11:13:25;2.15;;;1.10;;
6288;SDS011;3177;49.880;8.836;2022-08-02T11:15:57;1.00;;;0.93;;
6288;SDS011;3177;49.880;8.836;2022-08-02T11:21:22;0.82;;;0.82;;
6288;SDS011;3177;49.880;8.836;2022-08-02T11:23:49;0.80;;;0.80;;
6288;SDS011;3177;49.880;8.836;2022-08-02T11:29:02;1.65;;;0.90;;
6288;SDS011;3177;49.880;8.836;2022-08-02T11:31:36;1.38;;;0.77;;
6288;SDS011;3177;49.880;8.836;2022-08-02T11:34:04;0.77;;;0.77;;
6288;SDS011;3177;49.880;8.836;2022-08-02T11:36:33;0.80;;;0.70;;
6288;SDS011;3177;49.880;8.836;2022-08-02T11:39:09;0.45;;;0.45;;
6288;SDS011;3177;49.880;8.836;2022-08-02T11:41:36;1.08;;;1.08;;
6288;SDS011;3177;49.880;8.836;2022-08-02T11:44:03;0.90;;;0.90;;
6288;SDS011;3177;49.880;8.836;2022-08-02T11:46:30;1.35;;;0.80;;
6288;SDS011;3177;49.880;8.836;2022-08-02T11:49:01;1.00;;;0.90;;
6288;SDS011;3177;49.880;8.836;2022-08-02T11:51:37;0.85;;;0.85;;
6288;SDS011;3177;49.880;8.836;2022-08-02T11:54:04;1.10;;;1.00;;
6288;SDS011;3177;49.880;8.836;2022-08-02T11:56:32;1.85;;;0.88;;
6288;SDS011;3177;49.880;8.836;2022-08-02T11:58:59;0.82;;;0.82;;
6288;SDS011;3177;49.880;8.836;2022-08-02T12:01:26;1.33;;;0.90;;
6288;SDS011;3177;49.880;8.836;2022-08-02T12:03:53;0.95;;;0.70;;
6288;SDS011;3177;49.880;8.836;2022-08-02T12:06:24;0.90;;;0.90;;
6288;SDS011;3177;49.880;8.836;2022-08-02T12:08:58;0.95;;;0.90;;
6288;SDS011;3177;49.880;8.836;2022-08-02T12:14:31;0.80;;;0.80;;
6288;SDS011;3177;49.880;8.836;2022-08-02T12:17:07;1.33;;;1.20;;
6288;SDS011;3177;49.880;8.836;2022-08-02T12:19:52;0.70;;;0.70;;
6288;SDS011;3177;49.880;8.836;2022-08-02T12:22:22;1.90;;;0.95;;
6288;SDS011;3177;49.880;8.836;2022-08-02T12:24:51;0.98;;;0.70;;
6288;SDS011;3177;49.880;8.836;2022-08-02T12:27:28;1.38;;;0.93;;
6288;SDS011;3177;49.880;8.836;2022-08-02T12:29:59;1.08;;;0.82;;
6288;SDS011;3177;49.880;8.836;2022-08-02T12:32:27;0.73;;;0.73;;
6288;SDS011;3177;49.880;8.836;2022-08-02T12:35:04;1.33;;;1.23;;
6288;SDS011;3177;49.880;8.836;2022-08-02T12:37:32;1.95;;;1.00;;
6288;SDS011;3177;49.880;8.836;2022-08-02T12:42:45;1.08;;;1.00;;
6288;SDS011;3177;49.880;8.836;2022-08-02T12:45:13;0.90;;;0.90;;
6288;SDS011;3177;49.880;8.836;2022-08-02T12:47:43;0.90;;;0.75;;
6288;SDS011;3177;49.880;8.836;2022-08-02T12:50:11;0.80;;;0.80;;
6288;SDS011;3177;49.880;8.836;2022-08-02T12:52:39;1.40;;;0.80;;
6288;SDS011;3177;49.880;8.836;2022-08-02T12:57:53;0.85;;;0.85;;
6288;SDS011;3177;49.880;8.836;2022-08-02T13:00:24;1.08;;;1.00;;
6288;SDS011;3177;49.880;8.836;2022-08-02T13:02:51;0.85;;;0.85;;
6288;SDS011;3177;49.880;8.836;2022-08-02T13:05:18;1.20;;;1.10;;
6288;SDS011;3177;49.880;8.836;2022-08-02T13:07:46;2.35;;;1.10;;
6288;SDS011;3177;49.880;8.836;2022-08-02T13:10:13;0.82;;;0.82;;
6288;SDS011;3177;49.880;8.836;2022-08-02T13:12:40;0.70;;;0.70;;
6288;SDS011;3177;49.880;8.836;2022-08-02T13:15:09;0.90;;;0.90;;
6288;SDS011;3177;49.880;8.836;2022-08-02T13:17:36;1.00;;;0.80;;
6288;SDS011;3177;49.880;8.836;2022-08-02T13:20:04;1.08;;;1.05;;
6288;SDS011;3177;49.880;8.836;2022-08-02T13:22:31;1.00;;;1.00;;
6288;SDS011;3177;49.880;8.836;2022-08-02T13:24:58;0.98;;;0.90;;
6288;SDS011;3177;49.880;8.836;2022-08-02T13:27:25;0.88;;;0.88;;
6288;SDS011;3177;49.880;8.836;2022-08-02T13:29:52;4.00;;;1.10;;
6288;SDS011;3177;49.880;8.836;2022-08-02T13:32:21;0.82;;;0.82;;
6288;SDS011;3177;49.880;8.836;2022-08-02T13:34:48;1.30;;;0.85;;
6288;SDS011;3177;49.880;8.836;2022-08-02T13:37:15;1.15;;;1.05;;
6288;SDS011;3177;49.880;8.836;2022-08-02T13:39:43;0.90;;;0.88;;
6288;SDS011;3177;49.880;8.836;2022-08-02T13:42:10;0.93;;;0.90;;
6288;SDS011;3177;49.880;8.836;2022-08-02T13:44:37;1.00;;;1.00;;
6288;SDS011;3177;49.880;8.836;2022-08-02T13:47:04;0.80;;;0.80;;
6288;SDS011;3177;49.880;8.836;2022-08-02T13:49:33;0.82;;;0.82;;
6288;SDS011;3177;49.880;8.836;2022-08-02T13:52:00;3.47;;;0.90;;
6288;SDS011;3177;49.880;8.836;2022-08-02T13:54:27;0.85;;;0.85;;
6288;SDS011;3177;49.880;8.836;2022-08-02T13:56:54;0.90;;;0.90;;
6288;SDS011;3177;49.880;8.836;2022-08-02T13:59:22;1.02;;;0.93;;
6288;SDS011;3177;49.880;8.836;2022-08-02T14:01:49;1.15;;;1.02;;
6288;SDS011;3177;49.880;8.836;2022-08-02T14:04:16;0.95;;;0.93;;
6288;SDS011;3177;49.880;8.836;2022-08-02T14:06:44;1.02;;;0.93;;
6288;SDS011;3177;49.880;8.836;2022-08-02T14:09:11;3.83;;;1.25;;
6288;SDS011;3177;49.880;8.836;2022-08-02T14:11:38;0.75;;;0.75;;
6288;SDS011;3177;49.880;8.836;2022-08-02T14:14:05;0.90;;;0.90;;
6288;SDS011;3177;49.880;8.836;2022-08-02T14:16:32;1.00;;;0.73;;
6288;SDS011;3177;49.880;8.836;2022-08-02T14:18:59;0.73;;;0.73;;
6288;SDS011;3177;49.880;8.836;2022-08-02T14:21:27;3.63;;;1.10;;
6288;SDS011;3177;49.880;8.836;2022-08-02T14:23:55;1.10;;;1.10;;
6288;SDS011;3177;49.880;8.836;2022-08-02T14:26:22;1.20;;;1.10;;
6288;SDS011;3177;49.880;8.836;2022-08-02T14:28:49;0.90;;;0.90;;
6288;SDS011;3177;49.880;8.836;2022-08-02T14:31:16;1.75;;;0.90;;
6288;SDS011;3177;49.880;8.836;2022-08-02T14:33:43;1.00;;;1.00;;
6288;SDS011;3177;49.880;8.836;2022-08-02T14:36:10;0.80;;;0.80;;
6288;SDS011;3177;49.880;8.836;2022-08-02T14:38:38;1.40;;;0.90;;
6288;SDS011;3177;49.880;8.836;2022-08-02T14:41:06;2.15;;;1.00;;
6288;SDS011;3177;49.880;8.836;2022-08-02T14:43:33;1.15;;;0.80;;
6288;SDS011;3177;49.880;8.836;2022-08-02T14:46:18;0.77;;;0.75;;
6288;SDS011;3177;49.880;8.836;2022-08-02T14:48:45;4.50;;;1.00;;
6288;SDS011;3177;49.880;8.836;2022-08-02T14:51:12;0.93;;;0.82;;
6288;SDS011;3177;49.880;8.836;2022-08-02T14:53:39;0.77;;;0.77;;
6288;SDS011;3177;49.880;8.836;2022-08-02T14:56:08;0.70;;;0.70;;
6288;SDS011;3177;49.880;8.836;2022-08-02T14:58:35;1.10;;;0.90;;
6288;SDS011;3177;49.880;8.836;2022-08-02T15:01:03;0.80;;;0.80;;
6288;SDS011;3177;49.880;8.836;2022-08-02T15:03:30;0.90;;;0.90;;
6288;SDS011;3177;49.880;8.836;2022-08-02T15:05:57;2.45;;;0.85;;
6288;SDS011;3177;49.880;8.836;2022-08-02T15:08:25;0.68;;;0.68;;
6288;SDS011;3177;49.880;8.836;2022-08-02T15:10:52;0.98;;;0.77;;
6288;SDS011;3177;49.880;8.836;2022-08-02T15:13:20;0.77;;;0.70;;
6288;SDS011;3177;49.880;8.836;2022-08-02T15:15:47;0.80;;;0.80;;
6288;SDS011;3177;49.880;8.836;2022-08-02T15:18:15;0.88;;;0.88;;
6288;SDS011;3177;49.880;8.836;2022-08-02T15:20:42;0.70;;;0.70;;
6288;SDS011;3177;49.880;8.836;2022-08-02T15:23:10;0.73;;;0.70;;
6288;SDS011;3177;49.880;8.836;2022-08-02T15:25:37;0.93;;;0.93;;
6288;SDS011;3177;49.880;8.836;2022-08-02T15:28:04;0.77;;;0.77;;
6288;SDS011;3177;49.880;8.836;2022-08-02T15:30:33;1.05;;;0.80;;
6288;SDS011;3177;49.880;8.836;2022-08-02T15:33:00;1.55;;;0.98;;
6288;SDS011;3177;49.880;8.836;2022-08-02T15:35:27;0.98;;;0.98;;
6288;SDS011;3177;49.880;8.836;2022-08-02T15:37:54;0.63;;;0.50;;
6288;SDS011;3177;49.880;8.836;2022-08-02T15:40:21;0.98;;;0.80;;
6288;SDS011;3177;49.880;8.836;2022-08-02T15:42:49;1.38;;;0.90;;